Sardinia, Italy
Current Conditions -  °F | °C
As of 2:20 AM on Saturday 29 Nov 2014 (Local Time) from LIEE Reporting Station
Clear Clear  
Wind Chill: 64°   Ceiling: Unl
Heat Index: 64°   Visibility: 6mi
Dew Point: 63°   Wind: 7mph
Humidity: 94%   Direction: 130°SE
Pressure: 29.71"   Gusts: NA
Location:  39.25°N, 9.05°E
Report Text: LIEE 290120Z 13006KT CAVOK 18/17 Q1006
Loading
Personal Weather Stations






























Interactive Weather Map New forecast layout! Learn more

10-Day Weather Forecast

Advertisements
Track Severe Weather on mobile